createdAt,value
2019-02-11T00:00:51.927Z,7.00
2019-02-11T00:03:22.525Z,7.30
2019-02-11T00:05:53.363Z,7.30
2019-02-11T00:08:23.687Z,7.20
2019-02-11T00:10:54.308Z,7.00
2019-02-11T00:13:24.692Z,7.00
2019-02-11T00:15:55.026Z,7.20
2019-02-11T00:18:25.359Z,7.30
2019-02-11T00:20:55.733Z,7.20
2019-02-11T00:23:26.631Z,7.10
2019-02-11T00:25:57.276Z,7.10
2019-02-11T00:28:27.561Z,7.20
2019-02-11T00:30:58.532Z,7.20
2019-02-11T00:33:29.412Z,7.30
2019-02-11T00:36:00.046Z,7.40
2019-02-11T00:38:31.498Z,7.40
2019-02-11T00:41:01.871Z,7.30
2019-02-11T00:43:32.230Z,7.30
2019-02-11T00:46:02.823Z,7.30
2019-02-11T00:48:33.175Z,7.50
2019-02-11T00:51:03.821Z,7.30
2019-02-11T00:53:34.881Z,7.30
2019-02-11T00:56:05.283Z,7.20
2019-02-11T00:58:37.973Z,7.40
2019-02-11T01:01:08.287Z,7.30
2019-02-11T01:03:38.573Z,7.40
2019-02-11T01:06:10.007Z,7.40
2019-02-11T01:08:40.626Z,7.40
2019-02-11T01:11:11.551Z,7.30
2019-02-11T01:13:41.895Z,7.50
2019-02-11T01:16:12.470Z,7.60
2019-02-11T01:18:42.791Z,7.30
2019-02-11T01:21:13.161Z,7.60
2019-02-11T01:23:43.596Z,7.50
2019-02-11T01:26:14.646Z,7.50
2019-02-11T01:28:45.682Z,7.60
2019-02-11T01:31:16.334Z,7.60
2019-02-11T01:33:46.705Z,7.50
2019-02-11T01:36:24.679Z,7.70
2019-02-11T01:38:55.010Z,7.70
2019-02-11T01:41:25.245Z,7.50
2019-02-11T01:43:55.623Z,7.30
2019-02-11T01:46:26.433Z,7.40
2019-02-11T01:48:56.767Z,7.40
2019-02-11T01:51:27.637Z,7.50
2019-02-11T01:53:58.224Z,7.60
2019-02-11T01:56:34.693Z,7.50
2019-02-11T01:59:05.061Z,7.50
2019-02-11T02:01:35.687Z,7.30
2019-02-11T02:04:06.406Z,7.60
2019-02-11T02:06:36.724Z,7.50
2019-02-11T02:09:08.040Z,7.60
2019-02-11T02:11:38.412Z,7.40
2019-02-11T02:14:08.796Z,7.30
2019-02-11T02:16:39.418Z,7.30
2019-02-11T02:19:10.054Z,7.40
2019-02-11T02:21:40.454Z,7.60
2019-02-11T02:24:11.412Z,7.40
2019-02-11T02:26:41.742Z,7.60
2019-02-11T02:29:12.402Z,7.50
2019-02-11T02:31:43.084Z,7.50
2019-02-11T02:34:13.687Z,7.50
2019-02-11T02:36:44.287Z,7.60
2019-02-11T02:39:15.060Z,7.60
2019-02-11T02:41:45.650Z,7.60
2019-02-11T02:44:16.278Z,7.50
2019-02-11T02:46:46.837Z,7.60
2019-02-11T02:49:17.412Z,7.60
2019-02-11T02:51:47.747Z,7.50
2019-02-11T02:54:18.342Z,7.60
2019-02-11T02:56:48.634Z,7.70
2019-02-11T02:59:19.256Z,7.60
2019-02-11T03:01:49.579Z,7.70
2019-02-11T03:04:20.240Z,7.40
2019-02-11T03:06:50.588Z,7.40
2019-02-11T03:09:20.881Z,7.40
2019-02-11T03:11:51.511Z,7.50
2019-02-11T03:14:21.863Z,7.50
2019-02-11T03:16:52.173Z,7.60
2019-02-11T03:19:22.512Z,7.70
2019-02-11T03:21:53.126Z,7.60
2019-02-11T03:24:23.488Z,7.40
2019-02-11T03:26:54.156Z,7.40
2019-02-11T03:29:24.502Z,7.40
2019-02-11T03:31:55.244Z,7.50
2019-02-11T03:34:25.934Z,7.60
2019-02-11T03:37:07.678Z,7.30
2019-02-11T03:39:38.292Z,7.50
2019-02-11T03:42:08.706Z,7.40
2019-02-11T03:44:39.679Z,7.50
2019-02-11T03:47:10.412Z,7.30
2019-02-11T03:49:40.715Z,7.40
2019-02-11T03:52:11.045Z,7.50
2019-02-11T03:54:50.536Z,7.30
2019-02-11T03:57:21.167Z,7.30
2019-02-11T03:59:51.813Z,7.50
2019-02-11T04:02:22.384Z,7.50
2019-02-11T04:04:52.747Z,7.50
2019-02-11T04:07:23.077Z,7.20
2019-02-11T04:09:53.405Z,7.40
2019-02-11T04:12:24.411Z,7.20
2019-02-11T04:14:56.077Z,7.30
2019-02-11T04:17:26.373Z,7.50
2019-02-11T04:19:56.723Z,7.10
2019-02-11T04:22:27.075Z,7.30
2019-02-11T04:24:57.403Z,7.20
2019-02-11T04:27:28.010Z,7.30
2019-02-11T04:29:58.952Z,7.20
2019-02-11T04:32:29.277Z,7.20
2019-02-11T04:34:59.584Z,7.10
2019-02-11T04:37:29.930Z,7.20
2019-02-11T04:40:00.577Z,7.30
2019-02-11T04:42:30.928Z,7.40
2019-02-11T04:45:01.570Z,7.30
2019-02-11T04:47:31.893Z,7.30
2019-02-11T04:50:02.588Z,7.50
2019-02-11T04:52:32.921Z,7.30
2019-02-11T04:55:03.248Z,7.00
2019-02-11T04:57:33.561Z,7.20
2019-02-11T05:00:05.320Z,7.20
2019-02-11T05:02:36.973Z,7.20
2019-02-11T05:05:08.861Z,7.10
2019-02-11T05:07:39.219Z,7.10
2019-02-11T05:10:11.649Z,7.20
2019-02-11T05:12:42.662Z,7.10
2019-02-11T05:15:16.768Z,7.20
2019-02-11T05:17:47.088Z,7.00
2019-02-11T05:20:17.810Z,7.00
2019-02-11T05:22:48.110Z,7.10
2019-02-11T05:25:18.452Z,7.20
2019-02-11T05:27:49.070Z,7.20
2019-02-11T05:30:19.371Z,7.20
2019-02-11T05:32:49.737Z,7.10
2019-02-11T05:35:20.103Z,7.10
2019-02-11T05:37:50.418Z,7.10
2019-02-11T05:40:20.749Z,7.00
2019-02-11T05:42:51.747Z,7.20
2019-02-11T05:45:22.341Z,6.90
2019-02-11T05:47:53.160Z,6.90
2019-02-11T05:50:23.555Z,6.70
2019-02-11T05:53:00.337Z,6.90
2019-02-11T05:55:30.688Z,7.10
2019-02-11T05:58:01.318Z,6.90
2019-02-11T06:00:31.660Z,7.00
2019-02-11T06:03:02.029Z,6.80
2019-02-11T06:05:32.394Z,7.00
2019-02-11T06:08:02.740Z,7.10
2019-02-11T06:10:33.187Z,7.10
2019-02-11T06:13:03.785Z,6.80
2019-02-11T06:15:34.502Z,6.70
2019-02-11T06:18:04.860Z,6.60
2019-02-11T06:20:42.615Z,6.80
2019-02-11T06:23:13.012Z,6.70
2019-02-11T06:25:43.373Z,6.90
2019-02-11T06:28:13.986Z,6.90
2019-02-11T06:30:44.348Z,6.80
2019-02-11T06:33:14.728Z,6.90
2019-02-11T06:35:45.099Z,7.10
2019-02-11T06:38:15.568Z,7.00
2019-02-11T06:40:46.165Z,6.90
2019-02-11T06:43:16.858Z,7.00
2019-02-11T06:45:47.272Z,7.00
2019-02-11T06:48:17.583Z,7.00
2019-02-11T06:50:48.404Z,6.70
2019-02-11T06:53:18.717Z,6.90
2019-02-11T06:55:49.161Z,6.80
2019-02-11T06:58:19.794Z,6.70
2019-02-11T07:00:50.474Z,6.70
2019-02-11T07:03:21.127Z,6.70
2019-02-11T07:05:51.862Z,6.50
2019-02-11T07:08:25.534Z,6.80
2019-02-11T07:10:56.030Z,6.60
2019-02-11T07:13:26.426Z,6.70
2019-02-11T07:15:56.776Z,6.80
2019-02-11T07:18:27.229Z,6.80
2019-02-11T07:21:17.166Z,6.80
2019-02-11T07:23:47.730Z,6.70
2019-02-11T07:26:18.079Z,6.60
2019-02-11T07:28:48.456Z,6.60
2019-02-11T07:31:19.115Z,6.90
2019-02-11T07:33:49.460Z,6.70
2019-02-11T07:36:20.151Z,6.70
2019-02-11T07:39:00.983Z,6.80
2019-02-11T07:41:41.156Z,6.90
2019-02-11T07:44:33.329Z,6.80
2019-02-11T07:47:04.164Z,6.80
2019-02-11T07:49:34.571Z,7.00
2019-02-11T07:52:04.937Z,6.90
2019-02-11T07:54:35.268Z,7.00
2019-02-11T07:57:05.850Z,7.00
2019-02-11T07:59:36.190Z,6.80
2019-02-11T08:02:06.583Z,7.10
2019-02-11T08:04:36.936Z,6.80
2019-02-11T08:07:07.280Z,7.00
2019-02-11T08:09:37.599Z,6.90
2019-02-11T08:12:08.419Z,7.10
2019-02-11T08:14:38.985Z,7.00
2019-02-11T08:17:10.212Z,7.10
2019-02-11T08:19:40.905Z,7.00
2019-02-11T08:22:11.219Z,7.00
2019-02-11T08:24:41.818Z,7.00
2019-02-11T08:27:12.404Z,7.10
2019-02-11T08:29:42.732Z,7.10
2019-02-11T08:32:13.035Z,7.40
2019-02-11T08:34:43.867Z,7.10
2019-02-11T08:37:14.476Z,7.40
2019-02-11T08:39:45.348Z,7.50
2019-02-11T08:42:15.714Z,7.50
2019-02-11T08:44:46.033Z,7.70
2019-02-11T08:47:16.694Z,7.30
2019-02-11T08:49:47.092Z,7.40
2019-02-11T08:52:17.464Z,7.50
2019-02-11T08:54:49.102Z,7.50
2019-02-11T08:57:19.716Z,7.10
2019-02-11T08:59:50.327Z,7.30
2019-02-11T09:02:20.935Z,7.20
2019-02-11T09:04:51.413Z,7.00
2019-02-11T09:07:21.782Z,7.20
2019-02-11T09:09:52.115Z,7.40
2019-02-11T09:12:23.014Z,7.30
2019-02-11T09:14:53.354Z,7.50
2019-02-11T09:17:23.751Z,7.60
2019-02-11T09:19:54.087Z,7.80
2019-02-11T09:22:24.423Z,8.10
2019-02-11T09:24:54.751Z,8.20
2019-02-11T09:27:25.185Z,8.10
2019-02-11T09:29:55.411Z,8.50
2019-02-11T09:32:26.484Z,8.10
2019-02-11T09:34:57.364Z,8.10
2019-02-11T09:37:27.726Z,8.10
2019-02-11T09:39:58.094Z,8.00
2019-02-11T09:42:28.854Z,8.10
2019-02-11T09:44:59.431Z,8.30
2019-02-11T09:47:29.778Z,8.10
2019-02-11T09:50:22.447Z,8.40
2019-02-11T09:52:52.782Z,8.00
2019-02-11T09:55:26.627Z,8.60
2019-02-11T09:57:57.228Z,8.70
2019-02-11T10:00:27.881Z,8.60
2019-02-11T10:02:58.252Z,8.90
2019-02-11T10:05:28.837Z,8.40
2019-02-11T10:07:59.174Z,8.20
2019-02-11T10:10:30.108Z,8.40
2019-02-11T10:13:00.457Z,8.60
2019-02-11T10:15:30.822Z,8.60
2019-02-11T10:18:01.717Z,8.40
2019-02-11T10:20:32.376Z,8.40
2019-02-11T10:23:17.238Z,8.50
2019-02-11T10:25:48.168Z,8.60
2019-02-11T10:28:18.506Z,8.50
2019-02-11T10:30:49.148Z,8.50
2019-02-11T10:33:19.442Z,8.40
2019-02-11T10:35:50.376Z,8.70
2019-02-11T10:38:20.840Z,9.10
2019-02-11T10:40:52.071Z,9.10
2019-02-11T10:43:22.390Z,8.80
2019-02-11T10:45:53.033Z,8.70
2019-02-11T10:48:23.370Z,8.30
2019-02-11T10:50:54.131Z,7.20
2019-02-11T10:53:24.357Z,6.80
2019-02-11T10:55:54.680Z,6.70
2019-02-11T10:58:24.989Z,6.70
2019-02-11T11:00:55.322Z,6.90
2019-02-11T11:03:26.386Z,7.00
2019-02-11T11:05:56.739Z,6.70
2019-02-11T11:08:27.041Z,6.90
2019-02-11T11:10:57.416Z,6.80
2019-02-11T11:13:27.879Z,7.00
2019-02-11T11:15:58.474Z,7.00
2019-02-11T11:18:29.066Z,7.30
2019-02-11T11:21:00.011Z,7.50
2019-02-11T11:23:30.371Z,7.60
2019-02-11T11:26:02.189Z,7.80
2019-02-11T11:28:33.082Z,8.00
2019-02-11T11:31:03.391Z,7.80
2019-02-11T11:33:35.446Z,7.80
2019-02-11T11:36:06.139Z,8.00
2019-02-11T11:38:36.476Z,7.90
2019-02-11T11:41:07.287Z,8.30
2019-02-11T11:43:37.894Z,8.50
2019-02-11T11:46:08.263Z,8.70
2019-02-11T11:48:38.656Z,8.40
2019-02-11T11:51:09.024Z,8.50
2019-02-11T11:53:39.411Z,8.50
2019-02-11T11:56:09.950Z,8.60
2019-02-11T11:58:40.841Z,8.50
2019-02-11T12:01:11.701Z,8.50
2019-02-11T12:03:42.451Z,8.50
2019-02-11T12:06:12.765Z,8.50
2019-02-11T12:08:43.098Z,8.30
2019-02-11T12:11:13.387Z,8.40
2019-02-11T12:13:43.990Z,8.30
2019-02-11T12:16:14.682Z,8.30
2019-02-11T12:18:45.016Z,8.20
2019-02-11T12:21:15.415Z,8.50
2019-02-11T12:24:03.442Z,8.20
2019-02-11T12:26:33.783Z,8.50
2019-02-11T12:29:04.156Z,8.60
2019-02-11T12:31:34.845Z,8.40
2019-02-11T12:34:05.224Z,8.70
2019-02-11T12:36:35.837Z,8.80
2019-02-11T12:39:06.761Z,8.80
2019-02-11T12:41:37.045Z,9.00
2019-02-11T12:44:07.380Z,9.00
2019-02-11T12:46:52.934Z,9.40
2019-02-11T12:49:23.287Z,9.10
2019-02-11T12:51:53.642Z,9.30
2019-02-11T12:54:24.004Z,9.10
2019-02-11T12:56:54.406Z,9.20
2019-02-11T12:59:24.726Z,9.20
2019-02-11T13:01:55.615Z,9.40
2019-02-11T13:04:25.947Z,9.40
2019-02-11T13:06:56.295Z,9.50
2019-02-11T13:09:26.733Z,9.70
2019-02-11T13:11:57.039Z,9.80
2019-02-11T13:14:27.367Z,9.70
2019-02-11T13:16:57.722Z,9.40
2019-02-11T13:19:28.046Z,9.30
2019-02-11T13:21:58.434Z,9.30
2019-02-11T13:24:29.127Z,9.40
2019-02-11T13:26:59.496Z,9.20
2019-02-11T13:29:30.149Z,9.20
2019-02-11T13:32:01.017Z,9.40
2019-02-11T13:34:31.628Z,9.30
2019-02-11T13:37:01.988Z,9.50
2019-02-11T13:39:32.399Z,9.10
2019-02-11T13:42:02.756Z,9.00
2019-02-11T13:44:33.327Z,9.20
2019-02-11T13:47:04.090Z,9.40
2019-02-11T13:49:34.761Z,9.30
2019-02-11T13:52:05.149Z,9.10
2019-02-11T13:54:35.530Z,8.80
2019-02-11T13:57:06.151Z,8.90
2019-02-11T13:59:36.565Z,8.90
2019-02-11T14:02:07.331Z,8.70
2019-02-11T14:04:37.646Z,8.60
2019-02-11T14:07:08.050Z,8.50
2019-02-11T14:09:38.504Z,8.30
2019-02-11T14:12:09.838Z,8.30
2019-02-11T14:14:40.235Z,8.30
2019-02-11T14:17:10.837Z,8.10
2019-02-11T14:19:41.178Z,8.20
2019-02-11T14:22:11.651Z,8.20
2019-02-11T14:24:41.974Z,8.10
2019-02-11T14:27:12.346Z,8.20
2019-02-11T14:29:42.697Z,8.10
2019-02-11T14:32:13.534Z,8.00
2019-02-11T14:34:43.940Z,8.10
2019-02-11T14:37:14.337Z,8.10
2019-02-11T14:39:44.778Z,8.10
2019-02-11T14:42:15.684Z,8.30
2019-02-11T14:44:46.188Z,8.10
2019-02-11T14:47:16.570Z,8.40
2019-02-11T14:49:47.256Z,8.20
2019-02-11T14:52:17.828Z,8.10
2019-02-11T14:54:48.168Z,8.30
2019-02-11T14:57:18.529Z,8.40
2019-02-11T14:59:49.221Z,8.30
2019-02-11T15:02:19.572Z,8.20
2019-02-11T15:04:49.946Z,8.30
2019-02-11T15:07:20.411Z,8.10
2019-02-11T15:09:50.843Z,8.30
2019-02-11T15:12:21.371Z,8.50
2019-02-11T15:14:51.779Z,8.40
2019-02-11T15:17:22.890Z,8.50
2019-02-11T15:19:53.531Z,8.50
2019-02-11T15:22:24.164Z,8.20
2019-02-11T15:24:54.523Z,8.20
2019-02-11T15:27:25.521Z,8.30
2019-02-11T15:29:55.866Z,8.50
2019-02-11T15:32:26.215Z,8.40
2019-02-11T15:34:56.830Z,8.40
2019-02-11T15:37:27.238Z,8.60
2019-02-11T15:39:57.612Z,8.70
2019-02-11T15:42:28.899Z,8.30
2019-02-11T15:45:01.386Z,8.50
2019-02-11T15:47:31.711Z,8.70
2019-02-11T15:50:02.773Z,8.70
2019-02-11T15:52:33.123Z,8.70
2019-02-11T15:55:03.588Z,8.50
2019-02-11T15:57:33.940Z,8.20
2019-02-11T16:00:05.455Z,8.00
2019-02-11T16:02:35.817Z,8.20
2019-02-11T16:05:16.081Z,8.20
2019-02-11T16:07:41.774Z,8.10
2019-02-11T16:10:15.135Z,7.90
2019-02-11T16:12:45.523Z,7.90
2019-02-11T16:15:16.137Z,7.80
2019-02-11T16:17:46.513Z,7.80
2019-02-11T16:20:22.876Z,7.80
2019-02-11T16:22:53.384Z,7.80
2019-02-11T16:25:24.372Z,7.80
2019-02-11T16:27:54.735Z,7.90
2019-02-11T16:30:25.181Z,7.90
2019-02-11T16:32:55.501Z,7.70
2019-02-11T16:35:26.379Z,7.70
2019-02-11T16:37:57.411Z,7.70
2019-02-11T16:40:37.390Z,7.50
2019-02-11T16:43:07.745Z,7.50
2019-02-11T16:45:38.622Z,7.40
2019-02-11T16:48:09.387Z,7.50
2019-02-11T16:50:40.780Z,7.60
2019-02-11T16:53:11.633Z,7.50
2019-02-11T16:55:42.538Z,7.50
2019-02-11T16:58:12.864Z,7.50
2019-02-11T17:00:43.972Z,7.50
2019-02-11T17:03:14.456Z,7.60
2019-02-11T17:05:45.123Z,7.30
2019-02-11T17:08:15.469Z,7.40
2019-02-11T17:10:45.829Z,7.50
2019-02-11T17:13:16.421Z,7.50
2019-02-11T17:15:47.777Z,7.40
2019-02-11T17:18:18.141Z,7.10
2019-02-11T17:20:48.472Z,7.40
2019-02-11T17:23:19.312Z,7.20
2019-02-11T17:25:49.734Z,7.50
2019-02-11T17:28:20.315Z,7.30
2019-02-11T17:30:52.183Z,7.40
2019-02-11T17:33:23.099Z,7.30
2019-02-11T17:35:53.538Z,7.50
2019-02-11T17:38:24.218Z,7.70
2019-02-11T17:40:54.858Z,7.70
2019-02-11T17:43:25.475Z,7.70
2019-02-11T17:45:56.997Z,7.70
2019-02-11T17:48:27.956Z,7.60
2019-02-11T17:50:58.306Z,7.60
2019-02-11T17:53:28.720Z,7.70
2019-02-11T17:55:59.341Z,7.90
2019-02-11T17:58:30.307Z,7.80
2019-02-11T18:01:01.635Z,7.80
2019-02-11T18:03:32.302Z,7.80
2019-02-11T18:06:02.663Z,7.70
2019-02-11T18:08:33.303Z,7.80
2019-02-11T18:11:04.068Z,7.80
2019-02-11T18:13:34.408Z,7.40
2019-02-11T18:16:04.914Z,7.60
2019-02-11T18:18:42.600Z,7.50
2019-02-11T18:21:13.371Z,7.50
2019-02-11T18:23:43.708Z,7.40
2019-02-11T18:26:14.326Z,7.50
2019-02-11T18:28:44.684Z,7.20
2019-02-11T18:31:15.028Z,7.10
2019-02-11T18:33:45.408Z,7.20
2019-02-11T18:36:16.747Z,7.30
2019-02-11T18:38:47.135Z,7.10
2019-02-11T18:41:17.477Z,7.10
2019-02-11T18:43:48.539Z,7.10
2019-02-11T18:46:25.019Z,6.90
2019-02-11T18:49:03.866Z,6.90
2019-02-11T18:51:34.636Z,7.00
2019-02-11T18:54:05.018Z,7.10
2019-02-11T18:56:35.458Z,7.30
2019-02-11T18:59:06.324Z,7.40
2019-02-11T19:01:37.234Z,7.40
2019-02-11T19:04:09.023Z,7.20
2019-02-11T19:06:45.608Z,7.10
2019-02-11T19:09:18.649Z,7.30
2019-02-11T19:11:49.281Z,7.20
2019-02-11T19:14:19.981Z,6.90
2019-02-11T19:16:50.351Z,7.20
2019-02-11T19:19:21.327Z,7.00
2019-02-11T19:21:51.709Z,7.20
2019-02-11T19:24:22.121Z,7.40
2019-02-11T19:26:52.613Z,7.40
2019-02-11T19:29:23.031Z,7.60
2019-02-11T19:31:53.658Z,7.60
2019-02-11T19:34:24.055Z,7.50
2019-02-11T19:36:54.853Z,7.40
2019-02-11T19:39:25.187Z,7.30
2019-02-11T19:41:56.313Z,7.10
2019-02-11T19:44:26.975Z,7.30
2019-02-11T19:46:59.608Z,7.30
2019-02-11T19:49:30.265Z,7.40
2019-02-11T19:52:00.667Z,7.40
2019-02-11T19:54:31.138Z,7.10
2019-02-11T19:57:01.559Z,7.40
2019-02-11T19:59:31.894Z,7.20
2019-02-11T20:02:02.679Z,7.20
2019-02-11T20:04:33.075Z,7.10
2019-02-11T20:07:22.737Z,7.10
2019-02-11T20:09:53.676Z,6.80
2019-02-11T20:12:24.096Z,7.00
2019-02-11T20:14:55.165Z,7.00
2019-02-11T20:17:27.582Z,6.80
2019-02-11T20:20:00.338Z,7.10
2019-02-11T20:22:30.577Z,7.00
2019-02-11T20:25:02.231Z,6.80
2019-02-11T20:27:33.280Z,6.80
2019-02-11T20:30:03.693Z,6.70
2019-02-11T20:32:34.038Z,6.70
2019-02-11T20:35:04.565Z,6.60
2019-02-11T20:37:34.956Z,6.70
2019-02-11T20:40:07.435Z,6.70
2019-02-11T20:42:37.839Z,6.90
2019-02-11T20:45:13.633Z,6.90
2019-02-11T20:47:44.677Z,6.90
2019-02-11T20:50:15.051Z,6.90
2019-02-11T20:52:45.467Z,6.90
2019-02-11T20:55:15.923Z,6.90
2019-02-11T20:57:46.438Z,6.80
2019-02-11T21:00:36.145Z,7.10
2019-02-11T21:03:08.620Z,7.10
2019-02-11T21:05:39.430Z,7.10
2019-02-11T21:08:09.797Z,7.10
2019-02-11T21:10:40.191Z,7.00
2019-02-11T21:13:17.412Z,6.90
2019-02-11T21:15:48.217Z,7.00
2019-02-11T21:18:18.620Z,7.00
2019-02-11T21:20:48.996Z,7.10
2019-02-11T21:23:19.772Z,7.20
2019-02-11T21:25:50.227Z,7.20
2019-02-11T21:28:21.008Z,7.20
2019-02-11T21:30:51.527Z,7.00
2019-02-11T21:33:21.987Z,7.20
2019-02-11T21:35:52.611Z,7.20
2019-02-11T21:38:23.068Z,6.80
2019-02-11T21:40:53.630Z,6.80
2019-02-11T21:43:24.005Z,6.90
2019-02-11T21:45:54.443Z,7.10
2019-02-11T21:48:25.236Z,6.90
2019-02-11T21:50:56.194Z,7.00
2019-02-11T21:53:26.892Z,7.00
2019-02-11T21:55:57.983Z,7.10
2019-02-11T21:58:29.500Z,7.10
2019-02-11T22:01:02.403Z,7.10
2019-02-11T22:03:32.360Z,7.00
2019-02-11T22:06:09.001Z,6.90
2019-02-11T22:08:39.454Z,6.90
2019-02-11T22:11:10.294Z,7.10
2019-02-11T22:13:41.410Z,7.20
2019-02-11T22:16:12.140Z,7.10
2019-02-11T22:18:43.116Z,7.20
2019-02-11T22:21:13.774Z,7.20
2019-02-11T22:23:44.125Z,7.00
2019-02-11T22:26:14.527Z,7.00
2019-02-11T22:28:45.820Z,7.00
2019-02-11T22:31:17.312Z,7.10
2019-02-11T22:33:48.282Z,7.20
2019-02-11T22:36:38.048Z,7.00
2019-02-11T22:39:14.706Z,7.10
2019-02-11T22:41:45.191Z,7.10
2019-02-11T22:44:15.609Z,6.70
2019-02-11T22:46:46.022Z,6.90
2019-02-11T22:49:16.439Z,6.60
2019-02-11T22:51:56.020Z,6.80
2019-02-11T22:54:26.736Z,6.80
2019-02-11T22:56:57.495Z,6.90
2019-02-11T22:59:29.070Z,6.90
2019-02-11T23:01:59.888Z,6.80
2019-02-11T23:04:30.857Z,6.90
2019-02-11T23:07:01.554Z,6.70
2019-02-11T23:09:31.943Z,6.80
2019-02-11T23:12:02.364Z,6.80
2019-02-11T23:14:33.035Z,6.90
2019-02-11T23:17:03.766Z,6.90
2019-02-11T23:19:34.082Z,6.80
2019-02-11T23:22:04.447Z,6.90
2019-02-11T23:24:35.239Z,6.60
2019-02-11T23:27:05.626Z,6.60
2019-02-11T23:29:35.948Z,6.50
2019-02-11T23:32:06.951Z,6.60
2019-02-11T23:34:37.707Z,6.70
2019-02-11T23:37:08.092Z,6.40
2019-02-11T23:39:38.505Z,6.50
2019-02-11T23:42:08.906Z,6.50
2019-02-11T23:44:39.275Z,6.50
2019-02-11T23:47:10.026Z,6.60
2019-02-11T23:49:40.758Z,6.70
2019-02-11T23:52:11.119Z,6.80
2019-02-11T23:54:41.450Z,6.50
2019-02-11T23:57:11.953Z,6.60
2019-02-11T23:59:42.225Z,6.40
